sensor_id;sensor_type;location;lat;lon;timestamp;P1;durP1;ratioP1;P2;durP2;ratioP2
19883;SDS011;10104;50.732;10.174;2023-12-14T00:01:04;15.33;;;8.13;;
19883;SDS011;10104;50.732;10.174;2023-12-14T00:03:50;11.33;;;7.23;;
19883;SDS011;10104;50.732;10.174;2023-12-14T00:06:30;10.97;;;6.57;;
19883;SDS011;10104;50.732;10.174;2023-12-14T00:09:10;13.13;;;6.47;;
19883;SDS011;10104;50.732;10.174;2023-12-14T00:11:51;13.40;;;7.07;;
19883;SDS011;10104;50.732;10.174;2023-12-14T00:14:31;16.73;;;9.30;;
19883;SDS011;10104;50.732;10.174;2023-12-14T00:17:11;14.40;;;6.50;;
19883;SDS011;10104;50.732;10.174;2023-12-14T00:19:52;7.27;;;4.77;;
19883;SDS011;10104;50.732;10.174;2023-12-14T00:22:32;8.07;;;4.83;;
19883;SDS011;10104;50.732;10.174;2023-12-14T00:25:13;9.73;;;4.80;;
19883;SDS011;10104;50.732;10.174;2023-12-14T00:27:53;9.13;;;4.63;;
19883;SDS011;10104;50.732;10.174;2023-12-14T00:30:34;13.70;;;6.37;;
19883;SDS011;10104;50.732;10.174;2023-12-14T00:33:14;8.70;;;5.87;;
19883;SDS011;10104;50.732;10.174;2023-12-14T00:35:55;12.80;;;5.87;;
19883;SDS011;10104;50.732;10.174;2023-12-14T00:38:35;15.40;;;7.53;;
19883;SDS011;10104;50.732;10.174;2023-12-14T00:41:15;12.03;;;7.17;;
19883;SDS011;10104;50.732;10.174;2023-12-14T00:43:55;10.33;;;6.80;;
19883;SDS011;10104;50.732;10.174;2023-12-14T00:46:35;10.53;;;5.70;;
19883;SDS011;10104;50.732;10.174;2023-12-14T00:49:16;7.87;;;5.30;;
19883;SDS011;10104;50.732;10.174;2023-12-14T00:51:58;8.70;;;5.57;;
19883;SDS011;10104;50.732;10.174;2023-12-14T00:54:38;23.93;;;9.60;;
19883;SDS011;10104;50.732;10.174;2023-12-14T00:57:18;15.20;;;9.67;;
19883;SDS011;10104;50.732;10.174;2023-12-14T00:59:58;13.97;;;7.63;;
19883;SDS011;10104;50.732;10.174;2023-12-14T01:02:39;10.43;;;6.60;;
19883;SDS011;10104;50.732;10.174;2023-12-14T01:05:19;11.63;;;6.50;;
19883;SDS011;10104;50.732;10.174;2023-12-14T01:08:00;15.60;;;7.67;;
19883;SDS011;10104;50.732;10.174;2023-12-14T01:10:40;14.47;;;7.10;;
19883;SDS011;10104;50.732;10.174;2023-12-14T01:13:20;10.87;;;6.33;;
19883;SDS011;10104;50.732;10.174;2023-12-14T01:16:00;14.17;;;7.53;;
19883;SDS011;10104;50.732;10.174;2023-12-14T01:18:40;12.90;;;8.67;;
19883;SDS011;10104;50.732;10.174;2023-12-14T01:21:21;11.33;;;7.90;;
19883;SDS011;10104;50.732;10.174;2023-12-14T01:24:01;15.20;;;8.60;;
19883;SDS011;10104;50.732;10.174;2023-12-14T01:26:41;19.33;;;7.80;;
19883;SDS011;10104;50.732;10.174;2023-12-14T01:29:22;17.60;;;9.93;;
19883;SDS011;10104;50.732;10.174;2023-12-14T01:32:02;15.87;;;9.47;;
19883;SDS011;10104;50.732;10.174;2023-12-14T01:34:42;15.57;;;9.20;;
19883;SDS011;10104;50.732;10.174;2023-12-14T01:37:23;11.93;;;7.90;;
19883;SDS011;10104;50.732;10.174;2023-12-14T01:40:03;17.60;;;8.43;;
19883;SDS011;10104;50.732;10.174;2023-12-14T01:42:44;11.93;;;7.93;;
19883;SDS011;10104;50.732;10.174;2023-12-14T01:45:24;12.80;;;8.50;;
19883;SDS011;10104;50.732;10.174;2023-12-14T01:48:05;12.07;;;8.17;;
19883;SDS011;10104;50.732;10.174;2023-12-14T01:50:45;12.67;;;7.97;;
19883;SDS011;10104;50.732;10.174;2023-12-14T01:53:26;12.30;;;7.77;;
19883;SDS011;10104;50.732;10.174;2023-12-14T01:56:06;12.17;;;7.17;;
19883;SDS011;10104;50.732;10.174;2023-12-14T01:58:48;11.00;;;7.13;;
19883;SDS011;10104;50.732;10.174;2023-12-14T02:04:32;12.70;;;7.33;;
19883;SDS011;10104;50.732;10.174;2023-12-14T02:07:12;11.83;;;7.30;;
19883;SDS011;10104;50.732;10.174;2023-12-14T02:09:52;13.17;;;7.00;;
19883;SDS011;10104;50.732;10.174;2023-12-14T02:12:33;13.57;;;7.10;;
19883;SDS011;10104;50.732;10.174;2023-12-14T02:15:14;10.90;;;7.37;;
19883;SDS011;10104;50.732;10.174;2023-12-14T02:17:54;10.97;;;7.13;;
19883;SDS011;10104;50.732;10.174;2023-12-14T02:20:35;13.97;;;6.40;;
19883;SDS011;10104;50.732;10.174;2023-12-14T02:23:16;14.17;;;7.23;;
19883;SDS011;10104;50.732;10.174;2023-12-14T02:25:56;10.37;;;6.43;;
19883;SDS011;10104;50.732;10.174;2023-12-14T02:28:36;10.80;;;6.17;;
19883;SDS011;10104;50.732;10.174;2023-12-14T02:31:17;14.80;;;8.17;;
19883;SDS011;10104;50.732;10.174;2023-12-14T02:33:58;10.67;;;6.93;;
19883;SDS011;10104;50.732;10.174;2023-12-14T02:36:38;10.73;;;6.30;;
19883;SDS011;10104;50.732;10.174;2023-12-14T02:39:19;11.97;;;6.83;;
19883;SDS011;10104;50.732;10.174;2023-12-14T02:41:59;12.93;;;7.10;;
19883;SDS011;10104;50.732;10.174;2023-12-14T02:44:39;8.90;;;5.13;;
19883;SDS011;10104;50.732;10.174;2023-12-14T02:47:19;9.13;;;6.17;;
19883;SDS011;10104;50.732;10.174;2023-12-14T02:49:59;11.00;;;6.90;;
19883;SDS011;10104;50.732;10.174;2023-12-14T02:52:39;10.30;;;6.63;;
19883;SDS011;10104;50.732;10.174;2023-12-14T02:55:20;9.13;;;6.77;;
19883;SDS011;10104;50.732;10.174;2023-12-14T02:58:00;12.87;;;7.23;;
19883;SDS011;10104;50.732;10.174;2023-12-14T03:00:40;10.07;;;6.90;;
19883;SDS011;10104;50.732;10.174;2023-12-14T03:03:21;13.27;;;6.70;;
19883;SDS011;10104;50.732;10.174;2023-12-14T03:06:01;13.97;;;7.47;;
19883;SDS011;10104;50.732;10.174;2023-12-14T03:08:41;13.80;;;6.93;;
19883;SDS011;10104;50.732;10.174;2023-12-14T03:11:21;15.37;;;7.30;;
19883;SDS011;10104;50.732;10.174;2023-12-14T03:14:03;13.30;;;7.43;;
19883;SDS011;10104;50.732;10.174;2023-12-14T03:16:43;11.97;;;7.13;;
19883;SDS011;10104;50.732;10.174;2023-12-14T03:19:23;20.17;;;7.33;;
19883;SDS011;10104;50.732;10.174;2023-12-14T03:22:04;11.80;;;7.00;;
19883;SDS011;10104;50.732;10.174;2023-12-14T03:24:44;12.43;;;6.80;;
19883;SDS011;10104;50.732;10.174;2023-12-14T03:27:25;11.07;;;6.57;;
19883;SDS011;10104;50.732;10.174;2023-12-14T03:30:05;11.43;;;7.33;;
19883;SDS011;10104;50.732;10.174;2023-12-14T03:32:50;12.43;;;7.30;;
19883;SDS011;10104;50.732;10.174;2023-12-14T03:35:31;13.93;;;7.10;;
19883;SDS011;10104;50.732;10.174;2023-12-14T03:38:11;10.87;;;6.97;;
19883;SDS011;10104;50.732;10.174;2023-12-14T03:40:51;10.27;;;6.97;;
19883;SDS011;10104;50.732;10.174;2023-12-14T03:43:32;13.87;;;8.57;;
19883;SDS011;10104;50.732;10.174;2023-12-14T03:46:12;14.87;;;8.50;;
19883;SDS011;10104;50.732;10.174;2023-12-14T03:48:52;14.53;;;7.90;;
19883;SDS011;10104;50.732;10.174;2023-12-14T03:51:32;13.20;;;8.20;;
19883;SDS011;10104;50.732;10.174;2023-12-14T03:54:13;16.73;;;8.50;;
19883;SDS011;10104;50.732;10.174;2023-12-14T03:56:53;16.10;;;8.90;;
19883;SDS011;10104;50.732;10.174;2023-12-14T03:59:33;15.37;;;9.20;;
19883;SDS011;10104;50.732;10.174;2023-12-14T04:02:13;16.43;;;8.43;;
19883;SDS011;10104;50.732;10.174;2023-12-14T04:04:54;15.93;;;9.00;;
19883;SDS011;10104;50.732;10.174;2023-12-14T04:07:37;14.80;;;8.37;;
19883;SDS011;10104;50.732;10.174;2023-12-14T04:10:21;14.77;;;9.07;;
19883;SDS011;10104;50.732;10.174;2023-12-14T04:13:01;17.33;;;9.37;;
19883;SDS011;10104;50.732;10.174;2023-12-14T04:15:41;15.67;;;9.70;;
19883;SDS011;10104;50.732;10.174;2023-12-14T04:18:22;15.00;;;8.90;;
19883;SDS011;10104;50.732;10.174;2023-12-14T04:21:02;14.20;;;7.90;;
19883;SDS011;10104;50.732;10.174;2023-12-14T04:23:42;13.73;;;8.33;;
19883;SDS011;10104;50.732;10.174;2023-12-14T04:26:23;17.73;;;10.70;;
19883;SDS011;10104;50.732;10.174;2023-12-14T04:29:04;18.10;;;9.80;;
19883;SDS011;10104;50.732;10.174;2023-12-14T04:31:45;16.80;;;10.30;;
19883;SDS011;10104;50.732;10.174;2023-12-14T04:34:26;15.33;;;10.07;;
19883;SDS011;10104;50.732;10.174;2023-12-14T04:37:06;20.20;;;9.53;;
19883;SDS011;10104;50.732;10.174;2023-12-14T04:39:47;18.37;;;11.03;;
19883;SDS011;10104;50.732;10.174;2023-12-14T04:42:27;13.80;;;9.00;;
19883;SDS011;10104;50.732;10.174;2023-12-14T04:45:07;16.33;;;9.30;;
19883;SDS011;10104;50.732;10.174;2023-12-14T04:47:51;18.73;;;10.07;;
19883;SDS011;10104;50.732;10.174;2023-12-14T04:50:31;20.53;;;11.97;;
19883;SDS011;10104;50.732;10.174;2023-12-14T04:53:11;20.80;;;11.00;;
19883;SDS011;10104;50.732;10.174;2023-12-14T04:55:51;19.07;;;10.73;;
19883;SDS011;10104;50.732;10.174;2023-12-14T04:58:32;21.83;;;12.10;;
19883;SDS011;10104;50.732;10.174;2023-12-14T05:01:12;20.50;;;11.30;;
19883;SDS011;10104;50.732;10.174;2023-12-14T05:03:53;21.70;;;11.83;;
19883;SDS011;10104;50.732;10.174;2023-12-14T05:06:33;19.90;;;11.70;;
19883;SDS011;10104;50.732;10.174;2023-12-14T05:09:14;19.03;;;11.00;;
19883;SDS011;10104;50.732;10.174;2023-12-14T05:11:54;21.37;;;12.07;;
19883;SDS011;10104;50.732;10.174;2023-12-14T05:14:35;22.57;;;12.00;;
19883;SDS011;10104;50.732;10.174;2023-12-14T05:17:15;24.30;;;14.00;;
19883;SDS011;10104;50.732;10.174;2023-12-14T05:19:55;24.73;;;13.17;;
19883;SDS011;10104;50.732;10.174;2023-12-14T05:22:36;23.90;;;13.20;;
19883;SDS011;10104;50.732;10.174;2023-12-14T05:25:17;20.43;;;12.23;;
19883;SDS011;10104;50.732;10.174;2023-12-14T05:27:57;23.87;;;12.13;;
19883;SDS011;10104;50.732;10.174;2023-12-14T05:30:37;23.80;;;13.20;;
19883;SDS011;10104;50.732;10.174;2023-12-14T05:33:17;24.17;;;12.27;;
19883;SDS011;10104;50.732;10.174;2023-12-14T05:35:58;23.57;;;12.63;;
19883;SDS011;10104;50.732;10.174;2023-12-14T05:38:38;26.63;;;13.97;;
19883;SDS011;10104;50.732;10.174;2023-12-14T05:41:19;29.33;;;14.20;;
19883;SDS011;10104;50.732;10.174;2023-12-14T05:43:59;23.97;;;13.57;;
19883;SDS011;10104;50.732;10.174;2023-12-14T05:46:40;27.70;;;14.53;;
19883;SDS011;10104;50.732;10.174;2023-12-14T05:49:20;26.40;;;13.20;;
19883;SDS011;10104;50.732;10.174;2023-12-14T05:52:00;29.00;;;13.97;;
19883;SDS011;10104;50.732;10.174;2023-12-14T05:54:41;24.07;;;12.90;;
19883;SDS011;10104;50.732;10.174;2023-12-14T05:57:21;25.03;;;12.57;;
19883;SDS011;10104;50.732;10.174;2023-12-14T06:00:01;24.50;;;12.83;;
19883;SDS011;10104;50.732;10.174;2023-12-14T06:02:43;28.17;;;13.10;;
19883;SDS011;10104;50.732;10.174;2023-12-14T06:05:24;23.33;;;12.77;;
19883;SDS011;10104;50.732;10.174;2023-12-14T06:08:04;21.80;;;11.67;;
19883;SDS011;10104;50.732;10.174;2023-12-14T06:10:45;22.53;;;12.43;;
19883;SDS011;10104;50.732;10.174;2023-12-14T06:13:25;25.10;;;12.20;;
19883;SDS011;10104;50.732;10.174;2023-12-14T06:16:05;23.50;;;12.93;;
19883;SDS011;10104;50.732;10.174;2023-12-14T06:18:52;23.63;;;12.73;;
19883;SDS011;10104;50.732;10.174;2023-12-14T06:21:33;26.37;;;13.70;;
19883;SDS011;10104;50.732;10.174;2023-12-14T06:24:13;26.07;;;13.57;;
19883;SDS011;10104;50.732;10.174;2023-12-14T06:26:53;26.67;;;13.87;;
19883;SDS011;10104;50.732;10.174;2023-12-14T06:29:33;27.30;;;14.10;;
19883;SDS011;10104;50.732;10.174;2023-12-14T06:32:14;25.07;;;14.03;;
19883;SDS011;10104;50.732;10.174;2023-12-14T06:34:54;28.00;;;14.83;;
19883;SDS011;10104;50.732;10.174;2023-12-14T06:37:34;26.77;;;14.37;;
19883;SDS011;10104;50.732;10.174;2023-12-14T06:40:15;28.87;;;14.97;;
19883;SDS011;10104;50.732;10.174;2023-12-14T06:42:55;27.03;;;13.73;;
19883;SDS011;10104;50.732;10.174;2023-12-14T06:45:38;25.90;;;14.27;;
19883;SDS011;10104;50.732;10.174;2023-12-14T06:48:18;26.80;;;14.53;;
19883;SDS011;10104;50.732;10.174;2023-12-14T06:51:00;29.30;;;13.70;;
19883;SDS011;10104;50.732;10.174;2023-12-14T06:53:40;28.53;;;13.53;;
19883;SDS011;10104;50.732;10.174;2023-12-14T06:56:21;27.90;;;15.47;;
19883;SDS011;10104;50.732;10.174;2023-12-14T06:59:02;27.10;;;14.20;;
19883;SDS011;10104;50.732;10.174;2023-12-14T07:01:42;25.77;;;14.33;;
19883;SDS011;10104;50.732;10.174;2023-12-14T07:04:22;37.73;;;16.90;;
19883;SDS011;10104;50.732;10.174;2023-12-14T07:07:03;37.63;;;17.47;;
19883;SDS011;10104;50.732;10.174;2023-12-14T07:09:43;36.63;;;17.00;;
19883;SDS011;10104;50.732;10.174;2023-12-14T07:12:26;39.07;;;16.97;;
19883;SDS011;10104;50.732;10.174;2023-12-14T07:15:06;36.67;;;16.07;;
19883;SDS011;10104;50.732;10.174;2023-12-14T07:17:47;34.53;;;16.37;;
19883;SDS011;10104;50.732;10.174;2023-12-14T07:20:27;38.87;;;18.57;;
19883;SDS011;10104;50.732;10.174;2023-12-14T07:23:07;33.20;;;16.30;;
19883;SDS011;10104;50.732;10.174;2023-12-14T07:25:48;33.07;;;15.70;;
19883;SDS011;10104;50.732;10.174;2023-12-14T07:28:28;35.37;;;15.17;;
19883;SDS011;10104;50.732;10.174;2023-12-14T07:31:09;31.97;;;14.67;;
19883;SDS011;10104;50.732;10.174;2023-12-14T07:33:49;29.57;;;13.73;;
19883;SDS011;10104;50.732;10.174;2023-12-14T07:36:29;16.90;;;9.03;;
19883;SDS011;10104;50.732;10.174;2023-12-14T07:39:09;10.53;;;6.20;;
19883;SDS011;10104;50.732;10.174;2023-12-14T07:41:49;12.80;;;5.73;;
19883;SDS011;10104;50.732;10.174;2023-12-14T07:44:29;9.13;;;4.07;;
19883;SDS011;10104;50.732;10.174;2023-12-14T07:47:10;7.53;;;3.63;;
19883;SDS011;10104;50.732;10.174;2023-12-14T07:49:50;4.93;;;3.93;;
19883;SDS011;10104;50.732;10.174;2023-12-14T07:52:31;5.50;;;3.70;;
19883;SDS011;10104;50.732;10.174;2023-12-14T07:55:11;4.60;;;3.03;;
19883;SDS011;10104;50.732;10.174;2023-12-14T07:57:54;5.87;;;3.03;;
19883;SDS011;10104;50.732;10.174;2023-12-14T08:00:33;4.03;;;2.70;;
19883;SDS011;10104;50.732;10.174;2023-12-14T08:03:14;5.73;;;3.07;;
19883;SDS011;10104;50.732;10.174;2023-12-14T08:05:54;7.73;;;3.90;;
19883;SDS011;10104;50.732;10.174;2023-12-14T08:08:34;4.93;;;3.10;;
19883;SDS011;10104;50.732;10.174;2023-12-14T08:11:15;5.03;;;2.87;;
19883;SDS011;10104;50.732;10.174;2023-12-14T08:13:55;3.97;;;2.10;;
19883;SDS011;10104;50.732;10.174;2023-12-14T08:16:35;4.83;;;3.00;;
19883;SDS011;10104;50.732;10.174;2023-12-14T08:19:16;6.63;;;3.80;;
19883;SDS011;10104;50.732;10.174;2023-12-14T08:21:56;6.13;;;4.37;;
19883;SDS011;10104;50.732;10.174;2023-12-14T08:24:39;4.07;;;3.17;;
19883;SDS011;10104;50.732;10.174;2023-12-14T08:27:20;4.50;;;3.40;;
19883;SDS011;10104;50.732;10.174;2023-12-14T08:30:00;3.10;;;2.33;;
19883;SDS011;10104;50.732;10.174;2023-12-14T08:32:40;4.27;;;2.57;;
19883;SDS011;10104;50.732;10.174;2023-12-14T08:35:21;3.17;;;2.43;;
19883;SDS011;10104;50.732;10.174;2023-12-14T08:38:01;3.17;;;2.40;;
19883;SDS011;10104;50.732;10.174;2023-12-14T08:40:42;3.20;;;2.60;;
19883;SDS011;10104;50.732;10.174;2023-12-14T08:43:22;3.63;;;2.70;;
19883;SDS011;10104;50.732;10.174;2023-12-14T08:46:02;7.90;;;3.70;;
19883;SDS011;10104;50.732;10.174;2023-12-14T08:48:43;4.87;;;3.20;;
19883;SDS011;10104;50.732;10.174;2023-12-14T08:51:23;6.60;;;3.93;;
19883;SDS011;10104;50.732;10.174;2023-12-14T08:54:06;5.47;;;3.67;;
19883;SDS011;10104;50.732;10.174;2023-12-14T08:56:46;4.90;;;2.90;;
19883;SDS011;10104;50.732;10.174;2023-12-14T08:59:27;3.67;;;3.10;;
19883;SDS011;10104;50.732;10.174;2023-12-14T09:02:08;5.93;;;3.53;;
19883;SDS011;10104;50.732;10.174;2023-12-14T09:04:48;5.83;;;3.30;;
19883;SDS011;10104;50.732;10.174;2023-12-14T09:07:29;5.97;;;3.13;;
19883;SDS011;10104;50.732;10.174;2023-12-14T09:10:09;4.40;;;3.10;;
19883;SDS011;10104;50.732;10.174;2023-12-14T09:12:49;5.03;;;3.73;;
19883;SDS011;10104;50.732;10.174;2023-12-14T09:15:31;4.53;;;3.20;;
19883;SDS011;10104;50.732;10.174;2023-12-14T09:18:11;4.83;;;4.10;;
19883;SDS011;10104;50.732;10.174;2023-12-14T09:20:52;6.73;;;5.03;;
19883;SDS011;10104;50.732;10.174;2023-12-14T09:23:32;5.03;;;3.00;;
19883;SDS011;10104;50.732;10.174;2023-12-14T09:26:13;4.60;;;2.97;;
19883;SDS011;10104;50.732;10.174;2023-12-14T09:28:54;5.17;;;3.20;;
19883;SDS011;10104;50.732;10.174;2023-12-14T09:31:35;3.63;;;3.00;;
19883;SDS011;10104;50.732;10.174;2023-12-14T09:34:16;4.70;;;3.10;;
19883;SDS011;10104;50.732;10.174;2023-12-14T09:36:56;5.97;;;3.37;;
19883;SDS011;10104;50.732;10.174;2023-12-14T09:39:36;5.00;;;3.40;;
19883;SDS011;10104;50.732;10.174;2023-12-14T09:42:20;5.20;;;3.60;;
19883;SDS011;10104;50.732;10.174;2023-12-14T09:45:01;4.00;;;3.07;;
19883;SDS011;10104;50.732;10.174;2023-12-14T09:47:42;4.50;;;3.40;;
19883;SDS011;10104;50.732;10.174;2023-12-14T09:50:25;5.03;;;3.80;;
19883;SDS011;10104;50.732;10.174;2023-12-14T09:53:05;5.67;;;3.67;;
19883;SDS011;10104;50.732;10.174;2023-12-14T09:55:47;7.70;;;4.13;;
19883;SDS011;10104;50.732;10.174;2023-12-14T09:58:27;4.57;;;3.67;;
19883;SDS011;10104;50.732;10.174;2023-12-14T10:01:21;8.13;;;4.70;;
19883;SDS011;10104;50.732;10.174;2023-12-14T10:06:55;8.43;;;5.90;;
19883;SDS011;10104;50.732;10.174;2023-12-14T10:09:36;6.07;;;4.63;;
19883;SDS011;10104;50.732;10.174;2023-12-14T10:12:17;5.40;;;4.30;;
19883;SDS011;10104;50.732;10.174;2023-12-14T10:15:01;5.53;;;4.47;;
19883;SDS011;10104;50.732;10.174;2023-12-14T10:17:45;7.00;;;4.57;;
19883;SDS011;10104;50.732;10.174;2023-12-14T10:20:33;6.00;;;4.07;;
19883;SDS011;10104;50.732;10.174;2023-12-14T10:23:14;5.13;;;3.70;;
19883;SDS011;10104;50.732;10.174;2023-12-14T10:25:54;6.50;;;4.93;;
19883;SDS011;10104;50.732;10.174;2023-12-14T10:28:34;7.33;;;5.50;;
19883;SDS011;10104;50.732;10.174;2023-12-14T10:31:14;6.97;;;4.60;;
19883;SDS011;10104;50.732;10.174;2023-12-14T10:33:55;7.33;;;5.63;;
19883;SDS011;10104;50.732;10.174;2023-12-14T10:36:35;7.77;;;5.83;;
19883;SDS011;10104;50.732;10.174;2023-12-14T10:39:16;11.70;;;6.30;;
19883;SDS011;10104;50.732;10.174;2023-12-14T10:41:58;14.57;;;7.93;;
19883;SDS011;10104;50.732;10.174;2023-12-14T10:44:54;13.53;;;7.93;;
19883;SDS011;10104;50.732;10.174;2023-12-14T10:47:55;11.07;;;7.03;;
19883;SDS011;10104;50.732;10.174;2023-12-14T10:50:38;11.67;;;6.13;;
19883;SDS011;10104;50.732;10.174;2023-12-14T10:53:22;6.90;;;4.97;;
19883;SDS011;10104;50.732;10.174;2023-12-14T10:56:03;12.07;;;6.70;;
19883;SDS011;10104;50.732;10.174;2023-12-14T10:58:53;8.23;;;5.70;;
19883;SDS011;10104;50.732;10.174;2023-12-14T11:01:35;8.07;;;5.23;;
19883;SDS011;10104;50.732;10.174;2023-12-14T11:04:18;6.47;;;4.53;;
19883;SDS011;10104;50.732;10.174;2023-12-14T11:07:00;7.03;;;4.70;;
19883;SDS011;10104;50.732;10.174;2023-12-14T11:09:43;6.20;;;4.70;;
19883;SDS011;10104;50.732;10.174;2023-12-14T11:12:24;6.90;;;4.97;;
19883;SDS011;10104;50.732;10.174;2023-12-14T11:15:04;8.37;;;4.87;;
19883;SDS011;10104;50.732;10.174;2023-12-14T11:20:49;6.33;;;4.00;;
19883;SDS011;10104;50.732;10.174;2023-12-14T11:23:36;5.53;;;3.37;;
19883;SDS011;10104;50.732;10.174;2023-12-14T11:26:22;3.50;;;3.00;;
19883;SDS011;10104;50.732;10.174;2023-12-14T11:29:04;3.67;;;2.47;;
19883;SDS011;10104;50.732;10.174;2023-12-14T11:31:46;3.77;;;2.83;;
19883;SDS011;10104;50.732;10.174;2023-12-14T11:34:26;3.43;;;2.73;;
19883;SDS011;10104;50.732;10.174;2023-12-14T11:37:07;3.00;;;2.60;;
19883;SDS011;10104;50.732;10.174;2023-12-14T11:39:49;2.43;;;1.70;;
19883;SDS011;10104;50.732;10.174;2023-12-14T11:42:29;1.90;;;1.50;;
19883;SDS011;10104;50.732;10.174;2023-12-14T11:45:11;2.57;;;2.00;;
19883;SDS011;10104;50.732;10.174;2023-12-14T11:47:51;2.70;;;1.60;;
19883;SDS011;10104;50.732;10.174;2023-12-14T11:50:32;2.20;;;1.93;;
19883;SDS011;10104;50.732;10.174;2023-12-14T11:53:14;4.80;;;1.83;;
19883;SDS011;10104;50.732;10.174;2023-12-14T11:55:54;2.30;;;2.00;;
19883;SDS011;10104;50.732;10.174;2023-12-14T11:58:35;2.43;;;1.80;;
19883;SDS011;10104;50.732;10.174;2023-12-14T12:01:16;3.07;;;1.80;;
19883;SDS011;10104;50.732;10.174;2023-12-14T12:04:03;2.73;;;2.00;;
19883;SDS011;10104;50.732;10.174;2023-12-14T12:06:49;2.27;;;1.90;;
19883;SDS011;10104;50.732;10.174;2023-12-14T12:12:15;2.47;;;1.90;;
19883;SDS011;10104;50.732;10.174;2023-12-14T12:14:55;2.07;;;1.80;;
19883;SDS011;10104;50.732;10.174;2023-12-14T12:17:35;3.07;;;2.03;;
19883;SDS011;10104;50.732;10.174;2023-12-14T12:20:18;2.40;;;2.20;;
19883;SDS011;10104;50.732;10.174;2023-12-14T12:22:59;3.47;;;2.20;;
19883;SDS011;10104;50.732;10.174;2023-12-14T12:25:39;2.13;;;1.90;;
19883;SDS011;10104;50.732;10.174;2023-12-14T12:28:20;2.80;;;2.30;;
19883;SDS011;10104;50.732;10.174;2023-12-14T12:31:00;2.17;;;1.97;;
19883;SDS011;10104;50.732;10.174;2023-12-14T12:33:40;2.30;;;2.10;;
19883;SDS011;10104;50.732;10.174;2023-12-14T12:36:21;3.00;;;2.30;;
19883;SDS011;10104;50.732;10.174;2023-12-14T12:39:01;3.20;;;1.90;;
19883;SDS011;10104;50.732;10.174;2023-12-14T12:41:42;2.30;;;1.80;;
19883;SDS011;10104;50.732;10.174;2023-12-14T12:44:22;3.13;;;2.13;;
19883;SDS011;10104;50.732;10.174;2023-12-14T12:47:03;2.73;;;1.80;;
19883;SDS011;10104;50.732;10.174;2023-12-14T12:49:50;3.83;;;1.70;;
19883;SDS011;10104;50.732;10.174;2023-12-14T12:52:30;2.23;;;1.77;;
19883;SDS011;10104;50.732;10.174;2023-12-14T12:55:11;2.43;;;1.90;;
19883;SDS011;10104;50.732;10.174;2023-12-14T12:57:51;2.83;;;2.10;;
19883;SDS011;10104;50.732;10.174;2023-12-14T13:00:32;2.57;;;2.03;;
19883;SDS011;10104;50.732;10.174;2023-12-14T13:03:15;2.77;;;2.07;;
19883;SDS011;10104;50.732;10.174;2023-12-14T13:05:55;2.97;;;2.17;;
19883;SDS011;10104;50.732;10.174;2023-12-14T13:08:36;3.23;;;2.43;;
19883;SDS011;10104;50.732;10.174;2023-12-14T13:11:16;3.60;;;2.40;;
19883;SDS011;10104;50.732;10.174;2023-12-14T13:13:57;3.03;;;2.40;;
19883;SDS011;10104;50.732;10.174;2023-12-14T13:16:37;4.67;;;3.57;;
19883;SDS011;10104;50.732;10.174;2023-12-14T13:19:18;3.60;;;2.87;;
19883;SDS011;10104;50.732;10.174;2023-12-14T13:21:58;4.50;;;3.17;;
19883;SDS011;10104;50.732;10.174;2023-12-14T13:24:39;5.10;;;3.30;;
19883;SDS011;10104;50.732;10.174;2023-12-14T13:27:19;4.87;;;3.90;;
19883;SDS011;10104;50.732;10.174;2023-12-14T13:30:00;5.17;;;3.30;;
19883;SDS011;10104;50.732;10.174;2023-12-14T13:32:40;6.67;;;4.33;;
19883;SDS011;10104;50.732;10.174;2023-12-14T13:35:20;4.97;;;3.83;;
19883;SDS011;10104;50.732;10.174;2023-12-14T13:38:02;5.93;;;4.80;;
19883;SDS011;10104;50.732;10.174;2023-12-14T13:40:43;5.40;;;3.97;;
19883;SDS011;10104;50.732;10.174;2023-12-14T13:43:23;5.43;;;4.30;;
19883;SDS011;10104;50.732;10.174;2023-12-14T13:46:03;7.33;;;4.67;;
19883;SDS011;10104;50.732;10.174;2023-12-14T13:48:59;5.90;;;4.20;;
19883;SDS011;10104;50.732;10.174;2023-12-14T13:51:39;6.83;;;4.83;;
19883;SDS011;10104;50.732;10.174;2023-12-14T13:54:19;5.97;;;4.03;;
19883;SDS011;10104;50.732;10.174;2023-12-14T13:56:59;7.50;;;4.63;;
19883;SDS011;10104;50.732;10.174;2023-12-14T13:59:39;7.03;;;4.67;;
19883;SDS011;10104;50.732;10.174;2023-12-14T14:02:19;6.33;;;4.53;;
19883;SDS011;10104;50.732;10.174;2023-12-14T14:04:59;7.23;;;4.60;;
19883;SDS011;10104;50.732;10.174;2023-12-14T14:07:40;6.97;;;4.10;;
19883;SDS011;10104;50.732;10.174;2023-12-14T14:10:20;7.50;;;4.43;;
19883;SDS011;10104;50.732;10.174;2023-12-14T14:13:00;7.17;;;4.63;;
19883;SDS011;10104;50.732;10.174;2023-12-14T14:15:41;6.67;;;4.67;;
19883;SDS011;10104;50.732;10.174;2023-12-14T14:18:21;6.13;;;4.60;;
19883;SDS011;10104;50.732;10.174;2023-12-14T14:21:02;8.20;;;5.37;;
19883;SDS011;10104;50.732;10.174;2023-12-14T14:23:47;10.30;;;5.87;;
19883;SDS011;10104;50.732;10.174;2023-12-14T14:26:28;10.13;;;6.77;;
19883;SDS011;10104;50.732;10.174;2023-12-14T14:29:08;9.00;;;5.80;;
19883;SDS011;10104;50.732;10.174;2023-12-14T14:31:51;17.97;;;9.20;;
19883;SDS011;10104;50.732;10.174;2023-12-14T14:34:31;23.97;;;11.50;;
19883;SDS011;10104;50.732;10.174;2023-12-14T14:37:11;9.93;;;6.97;;
19883;SDS011;10104;50.732;10.174;2023-12-14T14:39:51;7.27;;;5.23;;
19883;SDS011;10104;50.732;10.174;2023-12-14T14:42:32;8.57;;;5.13;;
19883;SDS011;10104;50.732;10.174;2023-12-14T14:45:13;7.20;;;5.00;;
19883;SDS011;10104;50.732;10.174;2023-12-14T14:47:53;10.37;;;5.43;;
19883;SDS011;10104;50.732;10.174;2023-12-14T14:50:34;8.27;;;5.67;;
19883;SDS011;10104;50.732;10.174;2023-12-14T14:53:15;8.93;;;5.37;;
19883;SDS011;10104;50.732;10.174;2023-12-14T14:55:55;8.30;;;5.10;;
19883;SDS011;10104;50.732;10.174;2023-12-14T14:58:36;8.77;;;5.80;;
19883;SDS011;10104;50.732;10.174;2023-12-14T15:01:16;9.57;;;5.57;;
19883;SDS011;10104;50.732;10.174;2023-12-14T15:03:56;10.97;;;6.33;;
19883;SDS011;10104;50.732;10.174;2023-12-14T15:06:36;10.10;;;7.33;;
19883;SDS011;10104;50.732;10.174;2023-12-14T15:09:17;10.00;;;6.63;;
19883;SDS011;10104;50.732;10.174;2023-12-14T15:11:57;7.70;;;5.53;;
19883;SDS011;10104;50.732;10.174;2023-12-14T15:14:37;9.20;;;6.00;;
19883;SDS011;10104;50.732;10.174;2023-12-14T15:17:17;9.00;;;5.30;;
19883;SDS011;10104;50.732;10.174;2023-12-14T15:19:59;8.33;;;5.20;;
19883;SDS011;10104;50.732;10.174;2023-12-14T15:22:40;8.30;;;5.97;;
19883;SDS011;10104;50.732;10.174;2023-12-14T15:25:20;9.03;;;5.90;;
19883;SDS011;10104;50.732;10.174;2023-12-14T15:28:00;6.90;;;5.10;;
19883;SDS011;10104;50.732;10.174;2023-12-14T15:30:40;7.97;;;5.43;;
19883;SDS011;10104;50.732;10.174;2023-12-14T15:33:21;7.63;;;5.37;;
19883;SDS011;10104;50.732;10.174;2023-12-14T15:36:01;7.60;;;5.80;;
19883;SDS011;10104;50.732;10.174;2023-12-14T15:38:42;8.50;;;5.43;;
19883;SDS011;10104;50.732;10.174;2023-12-14T15:41:26;8.20;;;5.53;;
19883;SDS011;10104;50.732;10.174;2023-12-14T15:44:06;8.50;;;6.03;;
19883;SDS011;10104;50.732;10.174;2023-12-14T15:46:46;9.90;;;6.27;;
19883;SDS011;10104;50.732;10.174;2023-12-14T15:49:27;9.57;;;6.83;;
19883;SDS011;10104;50.732;10.174;2023-12-14T15:52:07;11.10;;;7.23;;
19883;SDS011;10104;50.732;10.174;2023-12-14T15:54:47;11.27;;;6.70;;
19883;SDS011;10104;50.732;10.174;2023-12-14T15:57:28;11.07;;;6.93;;